sensor_id;sensor_type;location;lat;lon;timestamp;pressure;altitude;pressure_sealevel;temperature
4421;BMP180;11824;51.178;13.546;2022-10-26T00:01:27;100514.00;;;8.30
4421;BMP180;11824;51.178;13.546;2022-10-26T00:03:56;100506.00;;;8.20
4421;BMP180;11824;51.178;13.546;2022-10-26T00:06:26;100513.00;;;8.20
4421;BMP180;11824;51.178;13.546;2022-10-26T00:08:56;100508.00;;;8.20
4421;BMP180;11824;51.178;13.546;2022-10-26T00:11:26;100505.00;;;8.20
4421;BMP180;11824;51.178;13.546;2022-10-26T00:13:54;100503.00;;;8.10
4421;BMP180;11824;51.178;13.546;2022-10-26T00:16:25;100514.00;;;8.10
4421;BMP180;11824;51.178;13.546;2022-10-26T00:18:54;100512.00;;;8.10
4421;BMP180;11824;51.178;13.546;2022-10-26T00:21:23;100516.00;;;8.10
4421;BMP180;11824;51.178;13.546;2022-10-26T00:23:51;100524.00;;;8.00
4421;BMP180;11824;51.178;13.546;2022-10-26T00:26:20;100520.00;;;8.00
4421;BMP180;11824;51.178;13.546;2022-10-26T00:28:52;100516.00;;;8.00
4421;BMP180;11824;51.178;13.546;2022-10-26T00:31:21;100512.00;;;8.00
4421;BMP180;11824;51.178;13.546;2022-10-26T00:33:52;100523.00;;;8.00
4421;BMP180;11824;51.178;13.546;2022-10-26T00:36:21;100529.00;;;8.00
4421;BMP180;11824;51.178;13.546;2022-10-26T00:38:50;100525.00;;;7.90
4421;BMP180;11824;51.178;13.546;2022-10-26T00:41:21;100524.00;;;7.90
4421;BMP180;11824;51.178;13.546;2022-10-26T00:43:52;100517.00;;;7.90
4421;BMP180;11824;51.178;13.546;2022-10-26T00:46:23;100527.00;;;7.90
4421;BMP180;11824;51.178;13.546;2022-10-26T00:48:54;100527.00;;;7.90
4421;BMP180;11824;51.178;13.546;2022-10-26T00:51:26;100527.00;;;7.90
4421;BMP180;11824;51.178;13.546;2022-10-26T00:54:01;100515.00;;;7.90
4421;BMP180;11824;51.178;13.546;2022-10-26T00:56:31;100513.00;;;7.90
4421;BMP180;11824;51.178;13.546;2022-10-26T00:59:04;100517.00;;;7.80
4421;BMP180;11824;51.178;13.546;2022-10-26T01:01:34;100519.00;;;7.80
4421;BMP180;11824;51.178;13.546;2022-10-26T01:04:04;100522.00;;;7.80
4421;BMP180;11824;51.178;13.546;2022-10-26T01:06:33;100516.00;;;7.80
4421;BMP180;11824;51.178;13.546;2022-10-26T01:09:03;100520.00;;;7.80
4421;BMP180;11824;51.178;13.546;2022-10-26T01:11:32;100515.00;;;7.70
4421;BMP180;11824;51.178;13.546;2022-10-26T01:14:05;100513.00;;;7.70
4421;BMP180;11824;51.178;13.546;2022-10-26T01:16:46;100516.00;;;7.70
4421;BMP180;11824;51.178;13.546;2022-10-26T01:22:32;100512.00;;;7.60
4421;BMP180;11824;51.178;13.546;2022-10-26T01:25:07;100510.00;;;7.60
4421;BMP180;11824;51.178;13.546;2022-10-26T01:27:40;100517.00;;;7.60
4421;BMP180;11824;51.178;13.546;2022-10-26T01:30:19;100508.00;;;7.50
4421;BMP180;11824;51.178;13.546;2022-10-26T01:33:15;100513.00;;;7.50
4421;BMP180;11824;51.178;13.546;2022-10-26T01:35:53;100511.00;;;7.50
4421;BMP180;11824;51.178;13.546;2022-10-26T01:38:33;100515.00;;;7.50
4421;BMP180;11824;51.178;13.546;2022-10-26T01:41:12;100514.00;;;7.50
4421;BMP180;11824;51.178;13.546;2022-10-26T01:43:47;100514.00;;;7.50
4421;BMP180;11824;51.178;13.546;2022-10-26T01:46:19;100509.00;;;7.50
4421;BMP180;11824;51.178;13.546;2022-10-26T01:48:52;100498.00;;;7.40
4421;BMP180;11824;51.178;13.546;2022-10-26T01:51:23;100502.00;;;7.40
4421;BMP180;11824;51.178;13.546;2022-10-26T01:53:52;100495.00;;;7.40
4421;BMP180;11824;51.178;13.546;2022-10-26T01:56:22;100499.00;;;7.40
4421;BMP180;11824;51.178;13.546;2022-10-26T02:02:13;100500.00;;;7.30
4421;BMP180;11824;51.178;13.546;2022-10-26T02:04:59;100502.00;;;7.30
4421;BMP180;11824;51.178;13.546;2022-10-26T02:07:36;100500.00;;;7.30
4421;BMP180;11824;51.178;13.546;2022-10-26T02:10:13;100503.00;;;7.30
4421;BMP180;11824;51.178;13.546;2022-10-26T02:12:51;100497.00;;;7.20
4421;BMP180;11824;51.178;13.546;2022-10-26T02:15:28;100501.00;;;7.20
4421;BMP180;11824;51.178;13.546;2022-10-26T02:18:05;100509.00;;;7.20
4421;BMP180;11824;51.178;13.546;2022-10-26T02:20:41;100504.00;;;7.20
4421;BMP180;11824;51.178;13.546;2022-10-26T02:23:11;100505.00;;;7.20
4421;BMP180;11824;51.178;13.546;2022-10-26T02:25:44;100498.00;;;7.20
4421;BMP180;11824;51.178;13.546;2022-10-26T02:28:21;100492.00;;;7.20
4421;BMP180;11824;51.178;13.546;2022-10-26T02:30:54;100490.00;;;7.20
4421;BMP180;11824;51.178;13.546;2022-10-26T02:33:28;100480.00;;;7.10
4421;BMP180;11824;51.178;13.546;2022-10-26T02:35:59;100486.00;;;7.10
4421;BMP180;11824;51.178;13.546;2022-10-26T02:38:29;100484.00;;;7.10
4421;BMP180;11824;51.178;13.546;2022-10-26T02:41:00;100487.00;;;7.10
4421;BMP180;11824;51.178;13.546;2022-10-26T02:43:31;100480.00;;;7.00
4421;BMP180;11824;51.178;13.546;2022-10-26T02:46:06;100485.00;;;7.00
4421;BMP180;11824;51.178;13.546;2022-10-26T02:48:37;100483.00;;;7.00
4421;BMP180;11824;51.178;13.546;2022-10-26T02:51:10;100481.00;;;7.00
4421;BMP180;11824;51.178;13.546;2022-10-26T02:53:44;100474.00;;;7.00
4421;BMP180;11824;51.178;13.546;2022-10-26T02:56:17;100482.00;;;7.00
4421;BMP180;11824;51.178;13.546;2022-10-26T02:58:50;100478.00;;;7.00
4421;BMP180;11824;51.178;13.546;2022-10-26T03:01:20;100481.00;;;7.00
4421;BMP180;11824;51.178;13.546;2022-10-26T03:03:50;100478.00;;;7.00
4421;BMP180;11824;51.178;13.546;2022-10-26T03:06:22;100477.00;;;7.00
4421;BMP180;11824;51.178;13.546;2022-10-26T03:08:51;100480.00;;;7.00
4421;BMP180;11824;51.178;13.546;2022-10-26T03:11:19;100470.00;;;7.00
4421;BMP180;11824;51.178;13.546;2022-10-26T03:13:48;100486.00;;;7.00
4421;BMP180;11824;51.178;13.546;2022-10-26T03:16:16;100478.00;;;7.00
4421;BMP180;11824;51.178;13.546;2022-10-26T03:18:45;100484.00;;;7.00
4421;BMP180;11824;51.178;13.546;2022-10-26T03:21:14;100485.00;;;7.00
4421;BMP180;11824;51.178;13.546;2022-10-26T03:23:43;100488.00;;;6.90
4421;BMP180;11824;51.178;13.546;2022-10-26T03:26:14;100479.00;;;6.90
4421;BMP180;11824;51.178;13.546;2022-10-26T03:28:43;100483.00;;;6.90
4421;BMP180;11824;51.178;13.546;2022-10-26T03:31:12;100488.00;;;6.90
4421;BMP180;11824;51.178;13.546;2022-10-26T03:33:40;100494.00;;;6.90
4421;BMP180;11824;51.178;13.546;2022-10-26T03:36:09;100486.00;;;6.90
4421;BMP180;11824;51.178;13.546;2022-10-26T03:38:39;100486.00;;;6.90
4421;BMP180;11824;51.178;13.546;2022-10-26T03:41:08;100482.00;;;6.90
4421;BMP180;11824;51.178;13.546;2022-10-26T03:43:36;100482.00;;;6.90
4421;BMP180;11824;51.178;13.546;2022-10-26T03:46:06;100477.00;;;6.90
4421;BMP180;11824;51.178;13.546;2022-10-26T03:48:34;100484.00;;;6.90
4421;BMP180;11824;51.178;13.546;2022-10-26T03:51:03;100477.00;;;6.90
4421;BMP180;11824;51.178;13.546;2022-10-26T03:53:32;100479.00;;;6.90
4421;BMP180;11824;51.178;13.546;2022-10-26T03:56:01;100475.00;;;6.90
4421;BMP180;11824;51.178;13.546;2022-10-26T03:58:30;100485.00;;;6.80
4421;BMP180;11824;51.178;13.546;2022-10-26T04:00:59;100480.00;;;6.80
4421;BMP180;11824;51.178;13.546;2022-10-26T04:03:27;100480.00;;;6.80
4421;BMP180;11824;51.178;13.546;2022-10-26T04:05:58;100478.00;;;6.80
4421;BMP180;11824;51.178;13.546;2022-10-26T04:08:27;100478.00;;;6.80
4421;BMP180;11824;51.178;13.546;2022-10-26T04:10:55;100483.00;;;6.80
4421;BMP180;11824;51.178;13.546;2022-10-26T04:13:30;100482.00;;;6.70
4421;BMP180;11824;51.178;13.546;2022-10-26T04:15:58;100487.00;;;6.70
4421;BMP180;11824;51.178;13.546;2022-10-26T04:18:27;100486.00;;;6.70
4421;BMP180;11824;51.178;13.546;2022-10-26T04:20:55;100488.00;;;6.70
4421;BMP180;11824;51.178;13.546;2022-10-26T04:23:27;100481.00;;;6.60
4421;BMP180;11824;51.178;13.546;2022-10-26T04:25:56;100486.00;;;6.60
4421;BMP180;11824;51.178;13.546;2022-10-26T04:28:24;100483.00;;;6.60
4421;BMP180;11824;51.178;13.546;2022-10-26T04:30:54;100481.00;;;6.60
4421;BMP180;11824;51.178;13.546;2022-10-26T04:33:23;100487.00;;;6.60
4421;BMP180;11824;51.178;13.546;2022-10-26T04:35:51;100469.00;;;6.60
4421;BMP180;11824;51.178;13.546;2022-10-26T04:38:20;100472.00;;;6.60
4421;BMP180;11824;51.178;13.546;2022-10-26T04:40:50;100470.00;;;6.60
4421;BMP180;11824;51.178;13.546;2022-10-26T04:43:19;100462.00;;;6.50
4421;BMP180;11824;51.178;13.546;2022-10-26T04:45:47;100467.00;;;6.50
4421;BMP180;11824;51.178;13.546;2022-10-26T04:48:17;100475.00;;;6.50
4421;BMP180;11824;51.178;13.546;2022-10-26T04:50:45;100469.00;;;6.50
4421;BMP180;11824;51.178;13.546;2022-10-26T04:53:14;100464.00;;;6.50
4421;BMP180;11824;51.178;13.546;2022-10-26T04:55:42;100467.00;;;6.40
4421;BMP180;11824;51.178;13.546;2022-10-26T04:58:11;100454.00;;;6.40
4421;BMP180;11824;51.178;13.546;2022-10-26T05:00:39;100469.00;;;6.40
4421;BMP180;11824;51.178;13.546;2022-10-26T05:03:09;100462.00;;;6.40
4421;BMP180;11824;51.178;13.546;2022-10-26T05:05:39;100459.00;;;6.40
4421;BMP180;11824;51.178;13.546;2022-10-26T05:08:07;100452.00;;;6.30
4421;BMP180;11824;51.178;13.546;2022-10-26T05:10:36;100455.00;;;6.30
4421;BMP180;11824;51.178;13.546;2022-10-26T05:13:04;100449.00;;;6.30
4421;BMP180;11824;51.178;13.546;2022-10-26T05:15:33;100455.00;;;6.30
4421;BMP180;11824;51.178;13.546;2022-10-26T05:18:03;100459.00;;;6.30
4421;BMP180;11824;51.178;13.546;2022-10-26T05:20:33;100461.00;;;6.20
4421;BMP180;11824;51.178;13.546;2022-10-26T05:23:05;100460.00;;;6.20
4421;BMP180;11824;51.178;13.546;2022-10-26T05:25:35;100459.00;;;6.20
4421;BMP180;11824;51.178;13.546;2022-10-26T05:28:05;100453.00;;;6.20
4421;BMP180;11824;51.178;13.546;2022-10-26T05:30:35;100461.00;;;6.20
4421;BMP180;11824;51.178;13.546;2022-10-26T05:33:04;100464.00;;;6.20
4421;BMP180;11824;51.178;13.546;2022-10-26T05:35:33;100456.00;;;6.20
4421;BMP180;11824;51.178;13.546;2022-10-26T05:38:08;100462.00;;;6.20
4421;BMP180;11824;51.178;13.546;2022-10-26T05:40:36;100463.00;;;6.20
4421;BMP180;11824;51.178;13.546;2022-10-26T05:43:05;100458.00;;;6.20
4421;BMP180;11824;51.178;13.546;2022-10-26T05:45:33;100463.00;;;6.20
4421;BMP180;11824;51.178;13.546;2022-10-26T05:48:02;100474.00;;;6.20
4421;BMP180;11824;51.178;13.546;2022-10-26T05:50:31;100473.00;;;6.20
4421;BMP180;11824;51.178;13.546;2022-10-26T05:52:59;100464.00;;;6.20
4421;BMP180;11824;51.178;13.546;2022-10-26T05:55:30;100463.00;;;6.20
4421;BMP180;11824;51.178;13.546;2022-10-26T05:57:59;100475.00;;;6.20
4421;BMP180;11824;51.178;13.546;2022-10-26T06:00:29;100473.00;;;6.20
4421;BMP180;11824;51.178;13.546;2022-10-26T06:03:07;100475.00;;;6.20
4421;BMP180;11824;51.178;13.546;2022-10-26T06:05:49;100477.00;;;6.20
4421;BMP180;11824;51.178;13.546;2022-10-26T06:08:19;100481.00;;;6.20
4421;BMP180;11824;51.178;13.546;2022-10-26T06:10:50;100483.00;;;6.30
4421;BMP180;11824;51.178;13.546;2022-10-26T06:13:20;100491.00;;;6.30
4421;BMP180;11824;51.178;13.546;2022-10-26T06:16:01;100499.00;;;6.30
4421;BMP180;11824;51.178;13.546;2022-10-26T06:18:41;100491.00;;;6.40
4421;BMP180;11824;51.178;13.546;2022-10-26T06:21:24;100502.00;;;6.40
4421;BMP180;11824;51.178;13.546;2022-10-26T06:24:00;100509.00;;;6.50
4421;BMP180;11824;51.178;13.546;2022-10-26T06:26:37;100509.00;;;6.50
4421;BMP180;11824;51.178;13.546;2022-10-26T06:29:17;100519.00;;;6.60
4421;BMP180;11824;51.178;13.546;2022-10-26T06:31:49;100511.00;;;6.60
4421;BMP180;11824;51.178;13.546;2022-10-26T06:34:22;100515.00;;;6.60
4421;BMP180;11824;51.178;13.546;2022-10-26T06:36:52;100521.00;;;6.70
4421;BMP180;11824;51.178;13.546;2022-10-26T06:39:22;100517.00;;;6.70
4421;BMP180;11824;51.178;13.546;2022-10-26T06:41:55;100506.00;;;6.70
4421;BMP180;11824;51.178;13.546;2022-10-26T06:44:24;100509.00;;;6.80
4421;BMP180;11824;51.178;13.546;2022-10-26T06:46:58;100511.00;;;6.80
4421;BMP180;11824;51.178;13.546;2022-10-26T06:49:30;100510.00;;;6.90
4421;BMP180;11824;51.178;13.546;2022-10-26T06:52:00;100513.00;;;6.90
4421;BMP180;11824;51.178;13.546;2022-10-26T06:54:42;100508.00;;;7.00
4421;BMP180;11824;51.178;13.546;2022-10-26T06:57:15;100503.00;;;7.10
4421;BMP180;11824;51.178;13.546;2022-10-26T06:59:49;100511.00;;;7.20
4421;BMP180;11824;51.178;13.546;2022-10-26T07:02:19;100508.00;;;7.20
4421;BMP180;11824;51.178;13.546;2022-10-26T07:04:48;100521.00;;;7.30
4421;BMP180;11824;51.178;13.546;2022-10-26T07:07:18;100516.00;;;7.40
4421;BMP180;11824;51.178;13.546;2022-10-26T07:09:47;100521.00;;;7.50
4421;BMP180;11824;51.178;13.546;2022-10-26T07:12:17;100524.00;;;7.60
4421;BMP180;11824;51.178;13.546;2022-10-26T07:14:46;100519.00;;;7.70
4421;BMP180;11824;51.178;13.546;2022-10-26T07:17:14;100522.00;;;7.80
4421;BMP180;11824;51.178;13.546;2022-10-26T07:19:43;100526.00;;;7.90
4421;BMP180;11824;51.178;13.546;2022-10-26T07:22:12;100524.00;;;8.00
4421;BMP180;11824;51.178;13.546;2022-10-26T07:24:40;100531.00;;;8.10
4421;BMP180;11824;51.178;13.546;2022-10-26T07:27:09;100529.00;;;8.20
4421;BMP180;11824;51.178;13.546;2022-10-26T07:29:39;100519.00;;;8.30
4421;BMP180;11824;51.178;13.546;2022-10-26T07:32:07;100514.00;;;8.40
4421;BMP180;11824;51.178;13.546;2022-10-26T07:34:36;100515.00;;;8.50
4421;BMP180;11824;51.178;13.546;2022-10-26T07:37:04;100518.00;;;8.60
4421;BMP180;11824;51.178;13.546;2022-10-26T07:39:33;100520.00;;;8.80
4421;BMP180;11824;51.178;13.546;2022-10-26T07:42:02;100527.00;;;8.90
4421;BMP180;11824;51.178;13.546;2022-10-26T07:44:30;100521.00;;;9.00
4421;BMP180;11824;51.178;13.546;2022-10-26T07:47:00;100521.00;;;9.10
4421;BMP180;11824;51.178;13.546;2022-10-26T07:49:29;100531.00;;;9.20
4421;BMP180;11824;51.178;13.546;2022-10-26T07:51:57;100534.00;;;9.40
4421;BMP180;11824;51.178;13.546;2022-10-26T07:54:26;100532.00;;;9.50
4421;BMP180;11824;51.178;13.546;2022-10-26T07:56:54;100523.00;;;9.60
4421;BMP180;11824;51.178;13.546;2022-10-26T07:59:23;100534.00;;;9.70
4421;BMP180;11824;51.178;13.546;2022-10-26T08:01:52;100522.00;;;9.80
4421;BMP180;11824;51.178;13.546;2022-10-26T08:04:22;100530.00;;;9.90
4421;BMP180;11824;51.178;13.546;2022-10-26T08:06:50;100533.00;;;10.00
4421;BMP180;11824;51.178;13.546;2022-10-26T08:09:19;100531.00;;;10.00
4421;BMP180;11824;51.178;13.546;2022-10-26T08:11:48;100529.00;;;10.10
4421;BMP180;11824;51.178;13.546;2022-10-26T08:14:16;100527.00;;;10.30
4421;BMP180;11824;51.178;13.546;2022-10-26T08:16:44;100530.00;;;10.30
4421;BMP180;11824;51.178;13.546;2022-10-26T08:19:14;100529.00;;;10.40
4421;BMP180;11824;51.178;13.546;2022-10-26T08:21:44;100535.00;;;10.60
4421;BMP180;11824;51.178;13.546;2022-10-26T08:24:12;100536.00;;;10.70
4421;BMP180;11824;51.178;13.546;2022-10-26T08:26:41;100541.00;;;10.80
4421;BMP180;11824;51.178;13.546;2022-10-26T08:29:10;100536.00;;;10.90
4421;BMP180;11824;51.178;13.546;2022-10-26T08:31:38;100529.00;;;11.10
4421;BMP180;11824;51.178;13.546;2022-10-26T08:34:07;100528.00;;;11.20
4421;BMP180;11824;51.178;13.546;2022-10-26T08:36:36;100527.00;;;11.30
4421;BMP180;11824;51.178;13.546;2022-10-26T08:39:05;100532.00;;;11.40
4421;BMP180;11824;51.178;13.546;2022-10-26T08:41:36;100532.00;;;11.60
4421;BMP180;11824;51.178;13.546;2022-10-26T08:44:17;100522.00;;;11.70
4421;BMP180;11824;51.178;13.546;2022-10-26T08:46:50;100517.00;;;11.90
4421;BMP180;11824;51.178;13.546;2022-10-26T08:49:22;100526.00;;;12.00
4421;BMP180;11824;51.178;13.546;2022-10-26T08:51:55;100525.00;;;12.10
4421;BMP180;11824;51.178;13.546;2022-10-26T08:54:34;100515.00;;;12.30
4421;BMP180;11824;51.178;13.546;2022-10-26T08:57:10;100512.00;;;12.40
4421;BMP180;11824;51.178;13.546;2022-10-26T08:59:46;100514.00;;;12.50
4421;BMP180;11824;51.178;13.546;2022-10-26T09:02:17;100520.00;;;12.60
4421;BMP180;11824;51.178;13.546;2022-10-26T09:04:47;100519.00;;;12.70
4421;BMP180;11824;51.178;13.546;2022-10-26T09:07:35;100521.00;;;12.90
4421;BMP180;11824;51.178;13.546;2022-10-26T09:10:19;100518.00;;;13.00
4421;BMP180;11824;51.178;13.546;2022-10-26T09:12:54;100521.00;;;13.10
4421;BMP180;11824;51.178;13.546;2022-10-26T09:15:31;100522.00;;;13.20
4421;BMP180;11824;51.178;13.546;2022-10-26T09:18:13;100528.00;;;13.30
4421;BMP180;11824;51.178;13.546;2022-10-26T09:20:55;100524.00;;;13.40
4421;BMP180;11824;51.178;13.546;2022-10-26T09:23:38;100517.00;;;13.50
4421;BMP180;11824;51.178;13.546;2022-10-26T09:26:14;100519.00;;;13.60
4421;BMP180;11824;51.178;13.546;2022-10-26T09:28:44;100523.00;;;13.70
4421;BMP180;11824;51.178;13.546;2022-10-26T09:31:16;100523.00;;;13.80
4421;BMP180;11824;51.178;13.546;2022-10-26T09:33:45;100530.00;;;13.80
4421;BMP180;11824;51.178;13.546;2022-10-26T09:36:18;100529.00;;;13.90
4421;BMP180;11824;51.178;13.546;2022-10-26T09:38:52;100533.00;;;14.00
4421;BMP180;11824;51.178;13.546;2022-10-26T09:41:27;100532.00;;;14.00
4421;BMP180;11824;51.178;13.546;2022-10-26T09:44:02;100533.00;;;14.10
4421;BMP180;11824;51.178;13.546;2022-10-26T09:46:41;100533.00;;;14.20
4421;BMP180;11824;51.178;13.546;2022-10-26T09:49:13;100531.00;;;14.20
4421;BMP180;11824;51.178;13.546;2022-10-26T09:51:43;100522.00;;;14.30
4421;BMP180;11824;51.178;13.546;2022-10-26T09:54:14;100532.00;;;14.40
4421;BMP180;11824;51.178;13.546;2022-10-26T09:56:48;100535.00;;;14.50
4421;BMP180;11824;51.178;13.546;2022-10-26T09:59:23;100542.00;;;14.50
4421;BMP180;11824;51.178;13.546;2022-10-26T10:02:34;100532.00;;;14.70
4421;BMP180;11824;51.178;13.546;2022-10-26T10:05:24;100542.00;;;14.80
4421;BMP180;11824;51.178;13.546;2022-10-26T10:08:18;100540.00;;;14.80
4421;BMP180;11824;51.178;13.546;2022-10-26T10:10:57;100539.00;;;14.90
4421;BMP180;11824;51.178;13.546;2022-10-26T10:13:29;100539.00;;;15.00
4421;BMP180;11824;51.178;13.546;2022-10-26T10:16:04;100542.00;;;15.10
4421;BMP180;11824;51.178;13.546;2022-10-26T10:18:36;100543.00;;;15.10
4421;BMP180;11824;51.178;13.546;2022-10-26T10:21:07;100538.00;;;15.20
4421;BMP180;11824;51.178;13.546;2022-10-26T10:23:45;100537.00;;;15.30
4421;BMP180;11824;51.178;13.546;2022-10-26T10:26:15;100540.00;;;15.30
4421;BMP180;11824;51.178;13.546;2022-10-26T10:28:55;100535.00;;;15.40
4421;BMP180;11824;51.178;13.546;2022-10-26T10:31:28;100540.00;;;15.50
4421;BMP180;11824;51.178;13.546;2022-10-26T10:33:57;100533.00;;;15.50
4421;BMP180;11824;51.178;13.546;2022-10-26T10:36:27;100538.00;;;15.50
4421;BMP180;11824;51.178;13.546;2022-10-26T10:38:56;100534.00;;;15.60
4421;BMP180;11824;51.178;13.546;2022-10-26T10:41:27;100537.00;;;15.70
4421;BMP180;11824;51.178;13.546;2022-10-26T10:44:04;100539.00;;;15.70
4421;BMP180;11824;51.178;13.546;2022-10-26T10:46:33;100539.00;;;15.80
4421;BMP180;11824;51.178;13.546;2022-10-26T10:49:05;100530.00;;;15.80
4421;BMP180;11824;51.178;13.546;2022-10-26T10:51:39;100529.00;;;15.90
4421;BMP180;11824;51.178;13.546;2022-10-26T10:54:24;100531.00;;;15.90
4421;BMP180;11824;51.178;13.546;2022-10-26T10:57:01;100528.00;;;16.00
4421;BMP180;11824;51.178;13.546;2022-10-26T10:59:44;100523.00;;;16.10
4421;BMP180;11824;51.178;13.546;2022-10-26T11:05:37;100526.00;;;16.20
4421;BMP180;11824;51.178;13.546;2022-10-26T11:08:14;100534.00;;;16.30
4421;BMP180;11824;51.178;13.546;2022-10-26T11:10:49;100530.00;;;16.40
4421;BMP180;11824;51.178;13.546;2022-10-26T11:13:21;100531.00;;;16.50
4421;BMP180;11824;51.178;13.546;2022-10-26T11:15:57;100521.00;;;16.50
4421;BMP180;11824;51.178;13.546;2022-10-26T11:18:32;100523.00;;;16.60
4421;BMP180;11824;51.178;13.546;2022-10-26T11:21:04;100518.00;;;16.70
4421;BMP180;11824;51.178;13.546;2022-10-26T11:23:39;100524.00;;;16.70
4421;BMP180;11824;51.178;13.546;2022-10-26T11:26:13;100527.00;;;16.80
4421;BMP180;11824;51.178;13.546;2022-10-26T11:28:48;100526.00;;;16.90
4421;BMP180;11824;51.178;13.546;2022-10-26T11:31:26;100520.00;;;16.90
4421;BMP180;11824;51.178;13.546;2022-10-26T11:34:11;100520.00;;;17.00
4421;BMP180;11824;51.178;13.546;2022-10-26T11:36:42;100522.00;;;17.00
4421;BMP180;11824;51.178;13.546;2022-10-26T11:39:19;100514.00;;;17.10
4421;BMP180;11824;51.178;13.546;2022-10-26T11:41:59;100519.00;;;17.10
4421;BMP180;11824;51.178;13.546;2022-10-26T11:44:30;100521.00;;;17.20
4421;BMP180;11824;51.178;13.546;2022-10-26T11:47:08;100521.00;;;17.20
4421;BMP180;11824;51.178;13.546;2022-10-26T11:49:46;100520.00;;;17.30
4421;BMP180;11824;51.178;13.546;2022-10-26T11:52:21;100528.00;;;17.30
4421;BMP180;11824;51.178;13.546;2022-10-26T11:54:54;100534.00;;;17.40
4421;BMP180;11824;51.178;13.546;2022-10-26T11:57:26;100536.00;;;17.40
4421;BMP180;11824;51.178;13.546;2022-10-26T12:00:00;100539.00;;;17.50
4421;BMP180;11824;51.178;13.546;2022-10-26T12:02:32;100540.00;;;17.50
4421;BMP180;11824;51.178;13.546;2022-10-26T12:05:15;100541.00;;;17.50
4421;BMP180;11824;51.178;13.546;2022-10-26T12:07:48;100537.00;;;17.50
4421;BMP180;11824;51.178;13.546;2022-10-26T12:10:39;100552.00;;;17.60
4421;BMP180;11824;51.178;13.546;2022-10-26T12:13:17;100546.00;;;17.60
4421;BMP180;11824;51.178;13.546;2022-10-26T12:15:49;100543.00;;;17.50
4421;BMP180;11824;51.178;13.546;2022-10-26T12:18:41;100547.00;;;17.50
4421;BMP180;11824;51.178;13.546;2022-10-26T12:21:27;100542.00;;;17.60
4421;BMP180;11824;51.178;13.546;2022-10-26T12:23:59;100537.00;;;17.60
4421;BMP180;11824;51.178;13.546;2022-10-26T12:26:38;100540.00;;;17.60
4421;BMP180;11824;51.178;13.546;2022-10-26T12:29:36;100541.00;;;17.70
4421;BMP180;11824;51.178;13.546;2022-10-26T12:35:47;100539.00;;;17.70
4421;BMP180;11824;51.178;13.546;2022-10-26T12:38:55;100541.00;;;17.70
4421;BMP180;11824;51.178;13.546;2022-10-26T12:41:29;100544.00;;;17.70
4421;BMP180;11824;51.178;13.546;2022-10-26T12:44:30;100545.00;;;17.70
4421;BMP180;11824;51.178;13.546;2022-10-26T12:47:03;100541.00;;;17.70
4421;BMP180;11824;51.178;13.546;2022-10-26T12:49:58;100544.00;;;17.70
4421;BMP180;11824;51.178;13.546;2022-10-26T12:52:50;100547.00;;;17.70
4421;BMP180;11824;51.178;13.546;2022-10-26T12:55:41;100543.00;;;17.70
4421;BMP180;11824;51.178;13.546;2022-10-26T12:58:34;100547.00;;;17.70
4421;BMP180;11824;51.178;13.546;2022-10-26T13:01:35;100547.00;;;17.70
4421;BMP180;11824;51.178;13.546;2022-10-26T13:04:20;100547.00;;;17.60
4421;BMP180;11824;51.178;13.546;2022-10-26T13:07:20;100548.00;;;17.60
4421;BMP180;11824;51.178;13.546;2022-10-26T13:09:56;100551.00;;;17.60
4421;BMP180;11824;51.178;13.546;2022-10-26T13:12:27;100547.00;;;17.50
4421;BMP180;11824;51.178;13.546;2022-10-26T13:15:01;100552.00;;;17.50
4421;BMP180;11824;51.178;13.546;2022-10-26T13:17:34;100558.00;;;17.50
4421;BMP180;11824;51.178;13.546;2022-10-26T13:20:05;100549.00;;;17.40
4421;BMP180;11824;51.178;13.546;2022-10-26T13:22:47;100556.00;;;17.40
4421;BMP180;11824;51.178;13.546;2022-10-26T13:25:25;100554.00;;;17.40
4421;BMP180;11824;51.178;13.546;2022-10-26T13:28:01;100549.00;;;17.40
4421;BMP180;11824;51.178;13.546;2022-10-26T13:30:41;100546.00;;;17.40
4421;BMP180;11824;51.178;13.546;2022-10-26T13:33:27;100549.00;;;17.40
4421;BMP180;11824;51.178;13.546;2022-10-26T13:36:01;100558.00;;;17.50
4421;BMP180;11824;51.178;13.546;2022-10-26T13:38:37;100554.00;;;17.60
4421;BMP180;11824;51.178;13.546;2022-10-26T13:41:31;100559.00;;;17.60
4421;BMP180;11824;51.178;13.546;2022-10-26T13:44:16;100551.00;;;17.80
4421;BMP180;11824;51.178;13.546;2022-10-26T13:46:55;100561.00;;;17.90
4421;BMP180;11824;51.178;13.546;2022-10-26T13:49:35;100551.00;;;18.00
4421;BMP180;11824;51.178;13.546;2022-10-26T13:52:14;100556.00;;;18.10
4421;BMP180;11824;51.178;13.546;2022-10-26T13:54:46;100549.00;;;18.20
4421;BMP180;11824;51.178;13.546;2022-10-26T13:57:26;100553.00;;;18.20
4421;BMP180;11824;51.178;13.546;2022-10-26T14:00:02;100543.00;;;18.30
4421;BMP180;11824;51.178;13.546;2022-10-26T14:02:41;100551.00;;;18.20
4421;BMP180;11824;51.178;13.546;2022-10-26T14:05:16;100542.00;;;18.20
4421;BMP180;11824;51.178;13.546;2022-10-26T14:07:50;100543.00;;;18.10
4421;BMP180;11824;51.178;13.546;2022-10-26T14:10:26;100548.00;;;18.10
4421;BMP180;11824;51.178;13.546;2022-10-26T14:12:59;100542.00;;;18.10
4421;BMP180;11824;51.178;13.546;2022-10-26T14:15:29;100550.00;;;18.00
4421;BMP180;11824;51.178;13.546;2022-10-26T14:18:00;100555.00;;;17.90
4421;BMP180;11824;51.178;13.546;2022-10-26T14:20:31;100563.00;;;17.80
4421;BMP180;11824;51.178;13.546;2022-10-26T14:23:00;100562.00;;;17.80
4421;BMP180;11824;51.178;13.546;2022-10-26T14:25:29;100558.00;;;17.70
4421;BMP180;11824;51.178;13.546;2022-10-26T14:28:25;100555.00;;;17.70
4421;BMP180;11824;51.178;13.546;2022-10-26T14:31:22;100564.00;;;17.60
4421;BMP180;11824;51.178;13.546;2022-10-26T14:33:52;100555.00;;;17.60
4421;BMP180;11824;51.178;13.546;2022-10-26T14:36:28;100561.00;;;17.60
4421;BMP180;11824;51.178;13.546;2022-10-26T14:39:06;100557.00;;;17.70
4421;BMP180;11824;51.178;13.546;2022-10-26T14:41:36;100568.00;;;17.70
4421;BMP180;11824;51.178;13.546;2022-10-26T14:44:14;100570.00;;;17.80
4421;BMP180;11824;51.178;13.546;2022-10-26T14:46:44;100572.00;;;17.80
4421;BMP180;11824;51.178;13.546;2022-10-26T14:49:18;100574.00;;;17.80
4421;BMP180;11824;51.178;13.546;2022-10-26T14:51:47;100580.00;;;17.80
4421;BMP180;11824;51.178;13.546;2022-10-26T14:54:20;100575.00;;;17.80